Time;durP1;ratioP1;P1;durP2;ratioP2;P2;SDS_P1;SDS_P2;PMS_P1;PMS_P2;Temp;Humidity;BMP_temperature;BMP_pressure;BME280_temperature;BME280_humidity;BME280_pressure;Samples;Min_cycle;Max_cycle;Signal;HPM_P1;HPM_P2
2022/07/13 00:01:25;;;;;;;11.35;4.35;;;;;;;23.09;57.19;102128.56;5053684;27;97809;-34
2022/07/13 00:03:51;;;;;;;11.57;4.25;;;;;;;23.14;56.72;102132.78;5053365;27;96575;-34
2022/07/13 00:06:18;;;;;;;8.60;3.65;;;;;;;23.08;56.89;102134.25;5052176;27;96968;-34
2022/07/13 00:08:43;;;;;;;9.07;4.15;;;;;;;23.08;56.85;102124.06;5053511;27;97914;-34
2022/07/13 00:11:08;;;;;;;8.23;3.88;;;;;;;23.14;56.31;102128.13;5052972;27;99213;-34
2022/07/13 00:13:34;;;;;;;11.10;4.68;;;;;;;23.10;56.46;102119.28;5053441;27;96608;-34
2022/07/13 00:15:59;;;;;;;7.88;4.07;;;;;;;23.11;56.63;102122.91;5051983;27;100043;-34
2022/07/13 00:18:24;;;;;;;9.93;4.72;;;;;;;23.10;56.55;102115.63;5052841;27;98415;-34
2022/07/13 00:20:50;;;;;;;13.25;4.90;;;;;;;23.09;56.47;102113.88;5053361;27;97855;-34
2022/07/13 00:23:15;;;;;;;10.80;4.40;;;;;;;23.05;56.62;102109.69;5053356;27;96452;-34
2022/07/13 00:25:40;;;;;;;9.35;4.20;;;;;;;23.06;57.31;102109.50;5053211;27;97337;-34
2022/07/13 00:28:06;;;;;;;9.43;4.05;;;;;;;23.00;57.01;102104.59;5052424;27;99972;-34
2022/07/13 00:30:31;;;;;;;10.15;3.85;;;;;;;22.90;57.55;102099.00;5052292;27;118359;-34
2022/07/13 00:32:56;;;;;;;8.00;3.42;;;;;;;22.92;56.93;102095.22;5052564;27;96759;-34
2022/07/13 00:35:22;;;;;;;6.63;3.33;;;;;;;22.86;57.25;102097.56;5053518;27;102611;-34
2022/07/13 00:38:06;;;;;;;6.55;2.85;;;;;;;22.92;57.39;102111.81;5052875;27;102147;-34
2022/07/13 00:40:31;;;;;;;6.57;3.28;;;;;;;22.89;56.70;102110.22;5053069;27;97890;-34
2022/07/13 00:42:57;;;;;;;4.88;2.80;;;;;;;22.87;57.55;102101.19;5052335;27;113382;-34
2022/07/13 00:45:23;;;;;;;5.78;3.00;;;;;;;22.81;57.52;102093.47;5053051;27;96748;-34
2022/07/13 00:47:49;;;;;;;7.63;3.08;;;;;;;22.80;57.59;102106.41;5052978;27;97490;-34
2022/07/13 00:50:15;;;;;;;5.75;2.92;;;;;;;22.74;57.89;102098.72;5051307;27;100720;-34
2022/07/13 00:52:41;;;;;;;6.47;2.63;;;;;;;22.77;57.70;102098.41;5051328;27;96599;-34
2022/07/13 00:55:09;;;;;;;5.97;2.78;;;;;;;22.75;57.58;102094.06;5051293;27;96944;-34
2022/07/13 00:57:36;;;;;;;5.63;3.08;;;;;;;22.74;57.56;102095.06;5051181;27;101116;-34
2022/07/13 01:00:12;;;;;;;4.80;2.50;;;;;;;22.72;57.92;102097.97;5052947;27;99152;-34
2022/07/13 01:02:42;;;;;;;5.45;2.67;;;;;;;22.67;58.65;102092.88;5052766;27;96645;-34
2022/07/13 01:05:10;;;;;;;6.32;2.85;;;;;;;22.62;57.75;102081.38;5051382;27;96930;-34
2022/07/13 01:07:35;;;;;;;6.95;2.65;;;;;;;22.60;58.29;102072.38;5050482;27;101108;-34
2022/07/13 01:10:05;;;;;;;6.10;2.72;;;;;;;22.62;58.24;102084.16;5052664;27;97950;-34
2022/07/13 01:12:31;;;;;;;6.50;3.42;;;;;;;22.59;58.41;102083.56;5050674;27;96930;-34
2022/07/13 01:14:57;;;;;;;10.82;3.05;;;;;;;22.54;58.58;102074.81;5051183;27;96789;-34
2022/07/13 01:17:24;;;;;;;6.80;2.90;;;;;;;22.52;58.54;102071.31;5050965;27;101155;-34
2022/07/13 01:19:50;;;;;;;4.97;2.55;;;;;;;22.43;58.66;102062.91;5050971;27;101071;-34
2022/07/13 01:22:24;;;;;;;4.60;2.60;;;;;;;22.47;59.05;102067.09;5051188;27;96575;-34
2022/07/13 01:24:49;;;;;;;5.75;3.00;;;;;;;22.47;59.03;102066.22;5052963;27;96544;-34
2022/07/13 01:27:15;;;;;;;6.60;3.03;;;;;;;22.41;59.07;102041.97;5051987;27;99344;-34
2022/07/13 01:29:41;;;;;;;4.75;2.92;;;;;;;22.45;59.16;102057.22;5050923;27;101413;-34
2022/07/13 01:32:06;;;;;;;5.60;2.83;;;;;;;22.41;59.43;102053.00;5052059;27;96435;-34
2022/07/13 01:34:31;;;;;;;5.43;2.75;;;;;;;22.44;59.32;102070.16;5052157;27;96786;-34
2022/07/13 01:36:57;;;;;;;3.97;2.47;;;;;;;22.39;59.58;102066.94;5052190;27;97983;-34
2022/07/13 01:39:24;;;;;;;4.75;2.88;;;;;;;22.35;59.34;102059.09;5051658;27;100761;-34
2022/07/13 01:41:49;;;;;;;4.65;2.90;;;;;;;22.42;59.36;102068.56;5054312;27;96714;-34
2022/07/13 01:44:15;;;;;;;5.82;2.78;;;;;;;22.41;59.29;102064.06;5055806;27;96834;-34
2022/07/13 01:46:40;;;;;;;5.85;2.88;;;;;;;22.42;59.04;102058.38;5055684;27;99194;-34
2022/07/13 01:49:11;;;;;;;7.38;3.33;;;;;;;22.39;59.09;102055.91;5055878;27;108214;-34
2022/07/13 01:51:38;;;;;;;4.68;2.65;;;;;;;22.42;58.86;102061.13;5056170;27;96811;-34
2022/07/13 01:54:03;;;;;;;4.90;2.75;;;;;;;22.36;59.19;102044.28;5054128;27;96932;-34
2022/07/13 01:56:29;;;;;;;6.55;2.75;;;;;;;22.40;58.57;102045.72;5054788;27;100663;-34
2022/07/13 01:58:54;;;;;;;7.47;2.95;;;;;;;22.34;58.71;102036.13;5055159;27;97740;-34
2022/07/13 02:01:19;;;;;;;4.97;2.58;;;;;;;22.42;58.70;102046.47;5055591;27;96720;-34
2022/07/13 02:03:45;;;;;;;5.93;2.83;;;;;;;22.39;58.73;102038.47;5055667;27;96908;-34
2022/07/13 02:06:10;;;;;;;4.95;2.65;;;;;;;22.37;58.95;102041.38;5055467;27;97433;-34
2022/07/13 02:08:36;;;;;;;7.15;2.70;;;;;;;22.42;59.27;102050.09;5053880;27;100964;-34
2022/07/13 02:11:03;;;;;;;6.50;2.75;;;;;;;22.38;58.23;102036.72;5053090;27;96718;-34
2022/07/13 02:13:28;;;;;;;5.93;3.28;;;;;;;22.39;58.58;102036.56;5054387;27;96760;-34
2022/07/13 02:15:54;;;;;;;6.78;2.80;;;;;;;22.36;58.36;102034.13;5055184;27;99618;-34
2022/07/13 02:18:19;;;;;;;4.70;2.22;;;;;;;22.38;58.31;102039.47;5055177;27;97900;-34
2022/07/13 02:20:44;;;;;;;4.57;2.70;;;;;;;22.34;58.33;102025.09;5054969;27;96583;-34
2022/07/13 02:23:10;;;;;;;4.35;2.42;;;;;;;22.38;58.04;102026.56;5055323;27;96782;-34
2022/07/13 02:25:37;;;;;;;6.50;2.42;;;;;;;22.40;58.22;102032.78;5054721;27;99402;-34
2022/07/13 02:28:03;;;;;;;6.95;2.70;;;;;;;22.37;58.34;102024.81;5053518;27;101391;-34
2022/07/13 02:30:28;;;;;;;5.50;2.53;;;;;;;22.36;58.09;102028.59;5055039;27;96651;-34
2022/07/13 02:32:53;;;;;;;5.47;2.47;;;;;;;22.41;58.68;102037.31;5054966;27;96799;-34
2022/07/13 02:35:19;;;;;;;6.57;2.53;;;;;;;22.31;58.13;102028.16;5055311;27;97152;-34
2022/07/13 02:37:44;;;;;;;4.85;2.45;;;;;;;22.40;58.10;102037.44;5055232;27;102069;-34
2022/07/13 02:40:11;;;;;;;4.75;2.58;;;;;;;22.32;58.75;102029.88;5054590;27;96592;-34
2022/07/13 02:42:36;;;;;;;6.00;2.50;;;;;;;22.37;58.20;102023.94;5053628;27;96842;-34
2022/07/13 02:45:02;;;;;;;5.32;2.67;;;;;;;22.39;58.05;102022.78;5054097;27;99256;-34
2022/07/13 02:47:28;;;;;;;6.53;2.40;;;;;;;22.39;57.76;102022.78;5053327;27;101143;-34
2022/07/13 02:49:53;;;;;;;4.80;2.15;;;;;;;22.40;57.97;102018.97;5054315;27;96602;-34
2022/07/13 02:52:19;;;;;;;5.10;2.35;;;;;;;22.39;57.58;102013.63;5054771;27;96877;-34
2022/07/13 02:54:53;;;;;;;5.95;2.38;;;;;;;22.43;57.95;102023.38;5054569;27;97554;-34
2022/07/13 02:57:18;;;;;;;5.22;2.78;;;;;;;22.34;58.23;102014.06;5053731;27;120365;-34
2022/07/13 02:59:44;;;;;;;3.65;2.20;;;;;;;22.34;58.31;102007.66;5054100;27;107036;-34
2022/07/13 03:02:09;;;;;;;4.88;2.60;;;;;;;22.33;57.97;102015.06;5055233;27;96948;-34
2022/07/13 03:04:35;;;;;;;6.93;2.58;;;;;;;22.35;58.08;102007.50;5054649;27;98011;-34
2022/07/13 03:07:01;;;;;;;4.28;2.42;;;;;;;22.31;58.10;102019.88;5054598;27;97269;-34
2022/07/13 03:09:27;;;;;;;4.70;2.35;;;;;;;22.30;58.69;102017.25;5053894;27;96727;-34
2022/07/13 03:11:52;;;;;;;4.30;2.17;;;;;;;22.24;59.25;102003.00;5053839;27;96824;-34
2022/07/13 03:14:18;;;;;;;4.72;2.38;;;;;;;22.25;58.80;102009.38;5054251;27;99252;-34
2022/07/13 03:16:43;;;;;;;5.75;2.70;;;;;;;22.25;58.30;102006.63;5054245;27;97933;-34
2022/07/13 03:19:09;;;;;;;4.38;2.67;;;;;;;22.30;58.60;102011.72;5054173;27;96574;-34
2022/07/13 03:21:35;;;;;;;4.03;2.47;;;;;;;22.26;58.38;101995.44;5054103;27;96946;-34
2022/07/13 03:24:00;;;;;;;5.65;2.60;;;;;;;22.29;58.79;102012.75;5052324;27;100999;-34
2022/07/13 03:26:26;;;;;;;5.50;2.67;;;;;;;22.27;58.66;102007.34;5054570;27;97342;-34
2022/07/13 03:28:51;;;;;;;5.50;2.67;;;;;;;22.21;58.99;101991.34;5054455;27;96759;-34
2022/07/13 03:31:17;;;;;;;6.60;2.83;;;;;;;22.22;58.67;102001.41;5053595;27;106934;-34
2022/07/13 03:33:43;;;;;;;7.35;2.65;;;;;;;22.20;58.73;101992.34;5051732;27;101567;-34
2022/07/13 03:36:13;;;;;;;5.00;2.70;;;;;;;22.14;59.36;101990.16;5052374;27;100562;-33
2022/07/13 03:38:38;;;;;;;6.65;2.97;;;;;;;22.10;59.48;101986.81;5052487;27;96930;-34
2022/07/13 03:41:04;;;;;;;5.07;2.47;;;;;;;22.14;59.44;101995.66;5054099;27;96780;-34
2022/07/13 03:43:30;;;;;;;5.22;2.47;;;;;;;22.12;59.36;101992.16;5052367;27;100785;-34
2022/07/13 03:45:55;;;;;;;5.10;2.42;;;;;;;22.12;59.29;101989.41;5052270;27;100719;-34
2022/07/13 03:48:21;;;;;;;5.40;2.90;;;;;;;22.11;59.22;101991.31;5053769;27;96536;-34
2022/07/13 03:50:47;;;;;;;4.18;2.42;;;;;;;22.06;59.72;101994.47;5054175;27;96823;-34
2022/07/13 03:53:13;;;;;;;6.65;2.70;;;;;;;22.05;59.36;101991.88;5051875;27;101391;-34
2022/07/13 03:55:39;;;;;;;5.22;2.45;;;;;;;22.04;60.05;101985.47;5053633;27;97959;-34
2022/07/13 03:58:05;;;;;;;7.30;3.20;;;;;;;22.10;59.93;101991.47;5051462;27;100027;-34
2022/07/13 04:00:31;;;;;;;7.07;2.90;;;;;;;22.04;59.72;101984.59;5054060;27;96754;-34
2022/07/13 04:02:57;;;;;;;4.78;2.65;;;;;;;22.03;60.14;101977.34;5052617;27;97427;-34
2022/07/13 04:05:22;;;;;;;6.55;2.92;;;;;;;22.09;59.91;101989.69;5053429;27;99103;-34
2022/07/13 04:07:48;;;;;;;6.55;3.10;;;;;;;22.00;60.63;101975.75;5053596;27;96533;-34
2022/07/13 04:10:13;;;;;;;9.13;3.38;;;;;;;22.10;60.22;101988.69;5052976;27;105105;-34
2022/07/13 04:12:42;;;;;;;5.82;2.83;;;;;;;22.12;60.17;101986.66;5052780;27;99448;-34
2022/07/13 04:15:08;;;;;;;7.95;2.85;;;;;;;22.10;60.48;101984.06;5052181;27;101195;-34
2022/07/13 04:17:33;;;;;;;5.30;3.00;;;;;;;22.06;60.82;101986.22;5053522;27;96624;-34
2022/07/13 04:19:58;;;;;;;6.25;2.83;;;;;;;22.10;60.24;101994.22;5053579;27;96830;-34
2022/07/13 04:22:23;;;;;;;7.35;3.50;;;;;;;22.08;60.81;101985.22;5052496;27;98777;-34
2022/07/13 04:24:49;;;;;;;6.45;3.03;;;;;;;22.08;60.04;101986.06;5053151;27;98099;-34
2022/07/13 04:27:14;;;;;;;5.97;2.97;;;;;;;22.09;60.15;101989.69;5053179;27;97944;-34
2022/07/13 04:29:39;;;;;;;5.90;3.28;;;;;;;22.09;61.14;101992.47;5051942;27;97111;-34
2022/07/13 04:32:05;;;;;;;6.40;3.10;;;;;;;22.09;60.99;101984.19;5052738;27;105203;-34
2022/07/13 04:34:30;;;;;;;6.78;3.25;;;;;;;22.11;60.90;101983.03;5052798;27;97846;-34
2022/07/13 04:36:56;;;;;;;5.57;3.03;;;;;;;22.11;60.99;101976.63;5053032;27;96662;-34
2022/07/13 04:39:21;;;;;;;6.88;3.05;;;;;;;22.11;61.10;101977.50;5053643;27;96792;-34
2022/07/13 04:41:46;;;;;;;8.60;3.42;;;;;;;22.16;61.05;101977.06;5052732;27;98831;-34
2022/07/13 04:44:12;;;;;;;5.75;3.35;;;;;;;22.18;61.25;101986.09;5052903;27;98193;-34
2022/07/13 04:46:37;;;;;;;6.55;3.35;;;;;;;22.23;60.86;101992.09;5052511;27;96604;-34
2022/07/13 04:49:02;;;;;;;8.85;3.20;;;;;;;22.26;61.25;101983.50;5053356;27;96516;-34
2022/07/13 04:51:28;;;;;;;9.93;3.13;;;;;;;22.24;60.68;101980.91;5052291;27;99162;-34
2022/07/13 04:53:53;;;;;;;11.65;3.30;;;;;;;22.27;61.09;101983.38;5052438;27;104664;-34
2022/07/13 04:56:18;;;;;;;5.78;3.05;;;;;;;22.29;60.79;101987.91;5052679;27;102594;-34
2022/07/13 04:58:44;;;;;;;8.68;3.40;;;;;;;22.30;60.85;101995.16;5052381;27;96893;-34
2022/07/13 05:01:09;;;;;;;8.50;3.35;;;;;;;22.24;61.15;101980.91;5052351;27;112129;-34
2022/07/13 05:03:34;;;;;;;8.73;3.47;;;;;;;22.30;60.81;101996.03;5052863;27;99068;-34
2022/07/13 05:06:00;;;;;;;6.65;3.30;;;;;;;22.23;61.26;101978.28;5052648;27;96692;-34
2022/07/13 05:08:26;;;;;;;8.15;3.33;;;;;;;22.30;60.89;101993.25;5052811;27;96646;-33
2022/07/13 05:10:53;;;;;;;7.75;3.42;;;;;;;22.32;60.74;101982.94;5050171;27;101035;-34
2022/07/13 05:13:18;;;;;;;14.35;3.45;;;;;;;22.27;61.04;101969.56;5052083;27;99275;-34
2022/07/13 05:15:45;;;;;;;8.98;3.28;;;;;;;22.36;61.61;101972.50;5052662;27;96684;-34
2022/07/13 05:18:10;;;;;;;8.27;3.35;;;;;;;22.35;61.11;101982.66;5052590;27;96737;-34
2022/07/13 05:20:36;;;;;;;7.05;2.92;;;;;;;22.37;60.34;101974.25;5052253;27;97110;-34
2022/07/13 05:23:01;;;;;;;6.22;2.97;;;;;;;22.36;60.85;101973.38;5052188;27;103499;-34
2022/07/13 05:25:26;;;;;;;9.20;2.88;;;;;;;22.38;60.70;101985.16;5052031;27;104718;-34
2022/07/13 05:27:51;;;;;;;5.13;2.75;;;;;;;22.41;59.96;101982.09;5052238;27;111120;-34
2022/07/13 05:30:17;;;;;;;13.30;3.55;;;;;;;22.50;60.00;101990.50;5052355;27;97392;-34
2022/07/13 05:32:42;;;;;;;7.00;2.55;;;;;;;22.50;60.29;101985.00;5052067;27;97913;-34
2022/07/13 05:35:08;;;;;;;10.07;2.60;;;;;;;22.48;60.27;101965.81;5051866;27;96591;-34
2022/07/13 05:37:33;;;;;;;9.98;2.72;;;;;;;22.52;60.11;101989.34;5052286;27;96732;-34
2022/07/13 05:39:58;;;;;;;5.10;2.58;;;;;;;22.57;60.43;102005.47;5052319;27;98084;-34
2022/07/13 05:42:25;;;;;;;8.85;2.50;;;;;;;22.51;59.86;101997.78;5052086;27;97351;-34
2022/07/13 05:44:59;;;;;;;6.47;2.70;;;;;;;22.55;59.99;101999.22;5052413;27;96549;-34
2022/07/13 05:47:25;;;;;;;4.95;2.63;;;;;;;22.59;59.59;102014.50;5051745;27;103899;-34
2022/07/13 05:49:50;;;;;;;7.97;2.80;;;;;;;22.61;60.07;102010.56;5051964;27;97831;-34
2022/07/13 05:52:15;;;;;;;4.82;2.70;;;;;;;22.57;59.41;102009.16;5052108;27;104110;-34
2022/07/13 05:54:41;;;;;;;5.70;2.58;;;;;;;22.55;60.00;102007.50;5051765;27;102990;-34
2022/07/13 05:57:06;;;;;;;6.03;2.35;;;;;;;22.59;60.41;102011.75;5051794;27;96918;-34
2022/07/13 05:59:33;;;;;;;5.95;2.50;;;;;;;22.61;60.34;102015.22;5051142;27;98046;-34
2022/07/13 06:02:01;;;;;;;5.15;2.60;;;;;;;22.62;60.02;102019.72;5051900;27;97852;-34
2022/07/13 06:04:27;;;;;;;5.07;2.85;;;;;;;22.59;60.04;102008.97;5050430;27;96733;-34
2022/07/13 06:06:52;;;;;;;4.10;2.75;;;;;;;22.64;60.31;102015.84;5052113;27;96786;-34
2022/07/13 06:09:17;;;;;;;6.32;2.75;;;;;;;22.62;60.19;102023.38;5051827;27;98043;-34
2022/07/13 06:11:43;;;;;;;7.55;2.80;;;;;;;22.68;60.60;102017.25;5051357;27;97717;-34
2022/07/13 06:14:08;;;;;;;7.45;3.45;;;;;;;22.65;61.02;102011.19;5051930;27;96568;-34
2022/07/13 06:16:34;;;;;;;7.28;2.67;;;;;;;22.63;60.52;101994.72;5052208;27;96766;-34
2022/07/13 06:18:59;;;;;;;5.38;2.97;;;;;;;22.68;60.60;102003.47;5049984;27;99385;-34
2022/07/13 06:21:24;;;;;;;9.55;3.40;;;;;;;22.70;60.43;102000.56;5051098;27;111827;-34
2022/07/13 06:23:50;;;;;;;8.82;3.13;;;;;;;22.75;60.76;102001.00;5051093;27;96875;-34
2022/07/13 06:26:15;;;;;;;7.28;2.88;;;;;;;22.76;60.23;102005.47;5053673;27;96837;-34
2022/07/13 06:28:41;;;;;;;9.65;3.45;;;;;;;22.81;61.18;102018.84;5053522;27;100867;-34
2022/07/13 06:31:07;;;;;;;6.03;3.55;;;;;;;22.80;60.38;102015.22;5055129;27;97663;-34
2022/07/13 06:33:32;;;;;;;6.30;3.25;;;;;;;22.80;60.55;102006.06;5054474;27;96812;-34
2022/07/13 06:35:57;;;;;;;9.27;3.70;;;;;;;22.87;60.58;102015.53;5054979;27;96868;-34
2022/07/13 06:38:22;;;;;;;10.00;3.97;;;;;;;22.83;60.53;102012.16;5054918;27;97997;-34
2022/07/13 06:40:49;;;;;;;7.13;3.97;;;;;;;22.89;60.76;102014.34;5054802;27;112691;-34
2022/07/13 06:43:15;;;;;;;9.40;3.67;;;;;;;22.93;60.76;102014.06;5053538;27;96756;-34
2022/07/13 06:45:40;;;;;;;8.23;3.60;;;;;;;22.97;60.37;102023.81;5053358;27;96734;-34
2022/07/13 06:48:06;;;;;;;7.05;3.20;;;;;;;22.98;60.75;102022.81;5054064;27;97913;-34
2022/07/13 06:50:31;;;;;;;6.43;3.30;;;;;;;22.96;60.57;102013.78;5054671;27;97798;-34
2022/07/13 06:52:57;;;;;;;8.55;3.85;;;;;;;23.00;60.39;102015.25;5054785;27;96561;-34
2022/07/13 06:55:22;;;;;;;7.05;3.20;;;;;;;22.96;60.26;102006.34;5054579;27;96836;-34
2022/07/13 06:57:48;;;;;;;7.70;3.10;;;;;;;23.01;59.66;102008.72;5054071;27;99304;-34
2022/07/13 07:00:13;;;;;;;6.15;3.30;;;;;;;23.01;60.06;102003.19;5054727;27;97342;-34
2022/07/13 07:02:39;;;;;;;9.73;4.00;;;;;;;23.05;60.17;102015.69;5054497;27;96618;-34
2022/07/13 07:05:07;;;;;;;8.95;3.10;;;;;;;23.11;59.65;102024.25;5054837;27;96835;-34
2022/07/13 07:07:32;;;;;;;5.57;3.05;;;;;;;23.09;60.21;102025.41;5054339;27;99097;-34
2022/07/13 07:09:58;;;;;;;10.80;3.40;;;;;;;23.06;60.29;102028.50;5054344;27;98219;-34
2022/07/13 07:12:23;;;;;;;5.85;2.85;;;;;;;23.03;59.83;102028.78;5053298;27;96747;-34
2022/07/13 07:14:49;;;;;;;12.18;3.53;;;;;;;23.03;60.57;102018.59;5054312;27;96849;-34
2022/07/13 07:17:16;;;;;;;8.57;2.67;;;;;;;23.05;60.05;102027.63;5054330;27;97068;-34
2022/07/13 07:19:41;;;;;;;8.82;3.30;;;;;;;23.04;59.91;102006.50;5054165;27;97821;-34
2022/07/13 07:22:06;;;;;;;7.43;3.38;;;;;;;23.10;59.89;102019.75;5054479;27;96490;-34
2022/07/13 07:24:44;;;;;;;8.55;3.38;;;;;;;23.21;59.70;102027.00;5054489;27;96756;-34
2022/07/13 07:27:10;;;;;;;9.00;3.38;;;;;;;23.25;59.33;102033.97;5054186;27;97947;-34
2022/07/13 07:29:37;;;;;;;8.68;3.10;;;;;;;23.27;59.61;102028.31;5054235;27;99203;-34
2022/07/13 07:32:02;;;;;;;12.30;3.47;;;;;;;23.32;59.80;102037.91;5052702;27;96643;-34
2022/07/13 07:34:28;;;;;;;7.63;3.33;;;;;;;23.35;59.74;102022.91;5053449;27;96859;-34
2022/07/13 07:36:54;;;;;;;6.28;3.15;;;;;;;23.46;59.66;102019.09;5050766;27;100696;-34
2022/07/13 07:39:20;;;;;;;8.88;3.25;;;;;;;23.67;58.99;102018.88;5052621;27;100826;-34
2022/07/13 07:41:45;;;;;;;7.47;3.15;;;;;;;23.76;58.91;102028.19;5053792;27;96641;-34
2022/07/13 07:44:10;;;;;;;5.45;3.15;;;;;;;23.88;58.74;102021.41;5053387;27;111057;-34
2022/07/13 07:46:36;;;;;;;9.30;3.58;;;;;;;23.93;58.39;102024.59;5053375;27;105881;-34
2022/07/13 07:49:03;;;;;;;6.65;3.20;;;;;;;23.93;58.77;102030.13;5053872;27;97784;-34
2022/07/13 07:51:29;;;;;;;8.98;3.53;;;;;;;24.01;58.64;102026.63;5053906;27;96628;-34
2022/07/13 07:53:54;;;;;;;7.30;3.58;;;;;;;24.08;58.14;102030.50;5052553;27;96899;-34
2022/07/13 07:56:20;;;;;;;7.70;3.08;;;;;;;24.07;58.44;102013.00;5053505;27;99479;-34
2022/07/13 07:58:45;;;;;;;7.07;4.70;;;;;;;24.21;57.95;102021.84;5053497;27;97332;-34
2022/07/13 08:01:19;;;;;;;5.97;3.10;;;;;;;24.28;57.66;102025.72;5053014;27;96737;-34
2022/07/13 08:03:45;;;;;;;10.85;3.30;;;;;;;24.32;57.69;102030.78;5053824;27;96814;-34
2022/07/13 08:06:11;;;;;;;9.63;3.58;;;;;;;24.50;57.51;102028.09;5053656;27;97931;-34
2022/07/13 08:08:52;;;;;;;8.07;3.20;;;;;;;24.80;56.94;102020.41;5053289;27;98629;-34
2022/07/13 08:11:18;;;;;;;9.18;3.03;;;;;;;25.07;56.42;102018.53;5052796;27;96802;-34
2022/07/13 08:13:47;;;;;;;10.13;3.72;;;;;;;25.26;55.97;102035.00;5053202;27;96751;-34
2022/07/13 08:16:13;;;;;;;5.95;2.92;;;;;;;25.57;55.21;102020.66;5051857;27;101214;-34
2022/07/13 08:18:38;;;;;;;9.30;3.33;;;;;;;25.70;55.25;102029.41;5052094;27;98940;-34
2022/07/13 08:21:04;;;;;;;10.27;3.35;;;;;;;25.74;54.99;102028.06;5053533;27;96491;-34
2022/07/13 08:26:13;;;;;;;14.70;3.42;;;;;;;25.94;54.16;102028.69;5052719;27;97151;-34
2022/07/13 08:28:39;;;;;;;5.57;3.30;;;;;;;26.11;53.93;102032.41;5052843;27;99164;-34
2022/07/13 08:31:05;;;;;;;7.95;3.17;;;;;;;26.28;53.61;102028.63;5053294;27;96674;-34
2022/07/13 08:38:35;;;;;;;9.43;3.65;;;;;;;26.39;52.69;102029.38;5052992;27;96793;-34
2022/07/13 08:39:06;;;;;;;6.30;3.03;;;;;;;26.77;52.21;102036.25;5053512;27;96967;-34
2022/07/13 08:41:32;;;;;;;6.93;3.33;;;;;;;26.78;51.77;102029.63;5052822;27;96497;-34
2022/07/13 08:43:58;;;;;;;8.70;3.70;;;;;;;26.72;51.65;102032.22;5053382;27;96801;-34
2022/07/13 08:46:24;;;;;;;10.35;3.15;;;;;;;26.77;52.24;102038.13;5051389;27;100848;-34
2022/07/13 08:48:54;;;;;;;6.78;3.45;;;;;;;26.86;50.57;102028.75;5050808;27;101030;-34
2022/07/13 08:51:20;;;;;;;7.50;2.92;;;;;;;27.02;51.06;102023.22;5052428;27;96562;-34
2022/07/13 08:53:47;;;;;;;9.90;3.42;;;;;;;27.27;51.27;102031.59;5051259;27;96892;-34
2022/07/13 08:56:13;;;;;;;9.95;3.75;;;;;;;27.61;50.10;102038.84;5051285;27;100600;-34
2022/07/13 08:58:38;;;;;;;7.07;3.50;;;;;;;27.75;49.72;102035.31;5052550;27;97325;-34
2022/07/13 09:01:05;;;;;;;9.57;3.35;;;;;;;27.80;49.27;102030.06;5052803;27;97355;-34
2022/07/13 09:03:35;;;;;;;7.75;3.25;;;;;;;27.80;49.14;102038.41;5051140;27;96920;-34
2022/07/13 09:06:00;;;;;;;8.82;3.60;;;;;;;27.95;48.55;102041.34;5052875;27;97181;-34
2022/07/13 09:08:26;;;;;;;6.88;3.20;;;;;;;28.12;48.12;102036.56;5053313;27;97359;-34
2022/07/13 09:10:59;;;;;;;11.40;3.35;;;;;;;28.32;47.54;102031.44;5052474;27;96868;-34
2022/07/13 09:13:44;;;;;;;7.45;3.33;;;;;;;28.47;47.13;102046.34;5051138;27;97443;-34
2022/07/13 09:16:23;;;;;;;8.25;2.88;;;;;;;28.61;45.90;102038.28;5050540;27;100929;-34
2022/07/13 09:18:54;;;;;;;8.07;3.13;;;;;;;28.73;46.28;102039.56;5050987;27;100788;-34
2022/07/13 09:21:22;;;;;;;7.90;3.13;;;;;;;28.80;46.99;102041.44;5052492;27;96582;-34
2022/07/13 09:24:07;;;;;;;5.78;2.90;;;;;;;29.02;45.78;102038.81;5051137;27;96840;-34
2022/07/13 09:26:41;;;;;;;4.72;2.67;;;;;;;29.17;46.39;102044.47;5051808;27;99003;-34
2022/07/13 09:29:07;;;;;;;6.53;3.30;;;;;;;29.17;45.72;102031.38;5052077;27;99299;-34
2022/07/13 09:31:52;;;;;;;11.15;3.60;;;;;;;29.26;46.25;102039.69;5052255;27;96552;-34
2022/07/13 09:34:19;;;;;;;8.98;3.42;;;;;;;29.35;46.29;102028.25;5052394;27;97010;-34
2022/07/13 09:36:44;;;;;;;6.55;3.20;;;;;;;29.43;46.00;102025.34;5050579;27;101110;-34
2022/07/13 09:39:15;;;;;;;9.15;3.20;;;;;;;29.34;44.35;102022.84;5051777;27;107584;-34
2022/07/13 09:41:41;;;;;;;9.45;3.83;;;;;;;29.10;46.14;102024.81;5051562;27;96527;-34
2022/07/13 09:47:00;;;;;;;7.85;3.08;;;;;;;29.06;44.82;102037.38;5052507;27;96563;-34
2022/07/13 09:49:31;;;;;;;8.43;3.20;;;;;;;28.94;45.50;102041.69;5050501;27;100979;-34
2022/07/13 09:51:57;;;;;;;;;;;;;;;28.77;45.70;102036.22;5052806;27;96712;-34
2022/07/13 09:54:28;;;;;;;6.20;3.17;;;;;;;28.98;45.82;102034.66;5050689;27;96818;-34
2022/07/13 09:57:01;;;;;;;10.40;3.00;;;;;;;29.15;45.33;102038.19;5050689;27;100860;-34
2022/07/13 09:59:28;;;;;;;11.27;3.45;;;;;;;29.35;45.13;102027.38;5050513;27;100941;-34
2022/07/13 10:01:55;;;;;;;7.68;3.13;;;;;;;29.34;45.39;102034.00;5053481;27;96714;-34
2022/07/13 10:04:21;;;;;;;13.20;3.72;;;;;;;29.44;43.76;102026.25;5054274;27;96925;-34
2022/07/13 10:06:47;;;;;;;7.25;3.70;;;;;;;29.75;44.50;102039.22;5053564;27;100838;-34
2022/07/13 10:09:14;;;;;;;7.95;3.63;;;;;;;30.00;43.44;102046.22;5053858;27;101038;-34
2022/07/13 10:11:39;;;;;;;6.32;3.10;;;;;;;29.96;44.15;102044.00;5053443;27;96871;-34
2022/07/13 10:14:06;;;;;;;6.05;3.33;;;;;;;29.83;44.38;102045.53;5088095;27;96934;-34
2022/07/13 10:16:32;;;;;;;6.07;3.25;;;;;;;29.60;44.45;102036.34;5053604;27;100469;-34
2022/07/13 10:19:03;;;;;;;7.03;3.30;;;;;;;29.49;44.44;102050.81;5055156;27;99355;-34
2022/07/13 10:21:59;;;;;;;5.10;3.03;;;;;;;29.32;45.04;102050.97;5055455;27;96560;-34
2022/07/13 10:24:25;;;;;;;6.47;3.60;;;;;;;29.43;45.04;102060.78;5055860;27;96603;-34
2022/07/13 10:26:50;;;;;;;5.88;3.13;;;;;;;29.58;44.81;102056.09;5055101;27;98064;-34
2022/07/13 10:29:16;;;;;;;6.70;3.15;;;;;;;29.85;45.02;102059.34;5055066;27;97363;-34
2022/07/13 10:31:43;;;;;;;6.03;3.15;;;;;;;29.81;44.61;102060.75;5055021;27;96494;-34
2022/07/13 10:34:10;;;;;;;9.55;3.63;;;;;;;29.64;44.36;102063.72;5053289;27;96816;-34
2022/07/13 10:36:51;;;;;;;8.63;3.78;;;;;;;29.41;43.70;102065.69;5053635;27;101497;-34
2022/07/13 10:39:24;;;;;;;7.60;3.33;;;;;;;29.23;44.83;102081.94;5054641;27;97400;-34
2022/07/13 10:41:57;;;;;;;6.30;3.00;;;;;;;29.24;44.97;102081.72;5054907;27;96579;-34
2022/07/13 10:44:32;;;;;;;10.60;3.05;;;;;;;29.43;44.12;102083.97;5055000;27;96808;-34
2022/07/13 10:46:58;;;;;;;6.05;3.45;;;;;;;29.50;44.01;102072.94;5054893;27;98021;-34
2022/07/13 10:49:37;;;;;;;8.45;3.25;;;;;;;29.34;42.62;102081.47;5055144;27;97744;-34
2022/07/13 10:52:21;;;;;;;7.70;3.03;;;;;;;29.26;44.17;102087.13;5054637;27;96689;-34
2022/07/13 10:55:02;;;;;;;7.18;3.22;;;;;;;29.24;44.44;102092.03;5054775;27;96877;-34
2022/07/13 10:57:28;;;;;;;6.82;3.03;;;;;;;29.43;43.18;102085.91;5054000;27;99468;-34
2022/07/13 11:00:16;;;;;;;8.40;3.55;;;;;;;29.63;43.28;102083.47;5054429;27;97239;-34
2022/07/13 11:02:44;;;;;;;7.75;3.33;;;;;;;29.55;44.02;102089.13;5053306;27;96649;-34
2022/07/13 11:05:11;;;;;;;8.25;3.33;;;;;;;29.60;43.92;102090.31;5053073;27;96912;-34
2022/07/13 11:07:41;;;;;;;5.60;3.53;;;;;;;29.81;43.64;102088.72;5054154;27;98970;-34
2022/07/13 11:10:19;;;;;;;8.13;3.57;;;;;;;29.91;42.40;102099.59;5053049;27;100686;-34
2022/07/13 11:13:15;;;;;;;7.63;3.30;;;;;;;30.09;41.92;102096.44;5052292;27;96672;-34
2022/07/13 11:15:50;;;;;;;5.00;2.95;;;;;;;30.04;42.50;102092.28;5054714;27;96618;-34
2022/07/13 11:18:29;;;;;;;6.72;3.05;;;;;;;30.24;42.65;102091.69;5053014;27;101012;-34
2022/07/13 11:21:13;;;;;;;5.15;2.80;;;;;;;30.51;41.54;102106.03;5054406;27;97865;-34
2022/07/13 11:26:55;;;;;;;5.93;2.80;;;;;;;30.78;41.15;102096.03;5053082;27;96555;-34
2022/07/13 11:29:45;;;;;;;5.70;3.00;;;;;;;30.65;41.85;102102.34;5052526;27;101001;-34
2022/07/13 11:32:11;;;;;;;11.65;3.08;;;;;;;30.41;42.11;102096.03;5052593;27;100925;-34
2022/07/13 11:34:36;;;;;;;8.75;2.97;;;;;;;30.41;41.24;102098.81;5053823;27;96805;-34